Time,TemperatureF,DewpointF,PressureIn,WindDirection,WindDirectionDegrees,WindSpeedMPH,WindSpeedGustMPH,Humidity,HourlyPrecipIn,Conditions,Clouds,dailyrainin,SoftwareType,DateUTC
2013-02-23 00:00:00,22.0,19.5,29.86,NNW,329,0.0,0.0,90,0.00,,,0.00,Wunderground v.1.15,2013-02-23 06:00:00,
2013-02-23 00:30:00,21.6,19.1,29.86,NNW,329,0.0,0.0,90,0.00,,,0.00,Wunderground v.1.15,2013-02-23 06:30:00,
2013-02-23 01:00:00,21.6,19.1,29.86,NNW,329,0.0,0.0,90,0.00,,,0.00,Wunderground v.1.15,2013-02-23 07:00:00,
2013-02-23 01:30:00,21.5,19.0,29.85,NNW,329,0.0,0.0,90,0.00,,,0.00,Wunderground v.1.15,2013-02-23 07:30:00,
2013-02-23 02:00:00,21.5,19.0,29.85,NNW,329,0.0,0.0,90,0.00,,,0.00,Wunderground v.1.15,2013-02-23 08:00:00,
2013-02-23 02:30:00,21.1,18.6,29.85,NNW,329,0.0,0.0,90,0.00,,,0.00,Wunderground v.1.15,2013-02-23 08:30:00,
2013-02-23 03:00:00,20.8,18.3,29.84,NNW,329,0.0,0.0,90,0.00,,,0.00,Wunderground v.1.15,2013-02-23 09:00:00,
2013-02-23 03:30:00,20.8,18.3,29.83,NNW,329,0.0,0.0,90,0.00,,,0.00,Wunderground v.1.15,2013-02-23 09:30:00,
2013-02-23 04:00:00,20.4,17.9,29.83,NNW,329,0.0,0.0,90,0.00,,,0.00,Wunderground v.1.15,2013-02-23 10:00:00,
2013-02-23 04:30:00,19.1,16.7,29.83,NNW,329,0.0,0.0,90,0.00,,,0.00,Wunderground v.1.15,2013-02-23 10:30:00,
2013-02-23 05:00:00,18.0,15.6,29.84,NNW,329,0.0,0.0,90,0.00,,,0.00,Wunderground v.1.15,2013-02-23 11:00:00,
2013-02-23 05:30:00,18.6,16.4,29.84,NNW,329,0.0,0.0,91,0.00,,,0.00,Wunderground v.1.15,2013-02-23 11:30:00,
2013-02-23 06:00:00,19.7,17.5,29.84,NNW,329,0.0,0.0,91,0.00,,,0.00,Wunderground v.1.15,2013-02-23 12:00:00,
2013-02-23 06:30:00,19.8,17.6,29.85,NNW,329,0.0,0.0,91,0.00,,,0.00,Wunderground v.1.15,2013-02-23 12:30:00,
2013-02-23 07:00:00,20.3,18.1,29.85,NNW,329,0.0,0.0,91,0.00,,,0.00,Wunderground v.1.15,2013-02-23 13:00:00,
2013-02-23 07:30:00,20.6,18.6,29.85,NNW,329,0.0,0.0,92,0.00,,,0.00,Wunderground v.1.15,2013-02-23 13:30:00,
2013-02-23 08:00:00,21.3,19.3,29.85,NNW,329,0.0,0.0,92,0.00,,,0.03,Wunderground v.1.15,2013-02-23 14:00:00,
2013-02-23 08:30:00,21.8,19.6,29.85,NNW,329,0.0,0.0,91,0.00,,,0.03,Wunderground v.1.15,2013-02-23 14:30:00,
2013-02-23 09:00:00,23.2,21.0,29.85,NNW,329,0.0,0.0,91,0.00,,,0.03,Wunderground v.1.15,2013-02-23 15:00:00,
2013-02-23 09:30:00,24.0,21.0,29.86,NNW,329,0.0,0.0,88,0.00,,,0.03,Wunderground v.1.15,2013-02-23 15:30:00,
2013-02-23 10:00:00,24.9,21.0,29.86,NNW,329,0.0,0.0,85,0.00,,,0.03,Wunderground v.1.15,2013-02-23 16:00:00,
2013-02-23 10:30:00,26.3,21.6,29.86,NNW,329,0.0,1.0,82,0.00,,,0.03,Wunderground v.1.15,2013-02-23 16:30:00,
2013-02-23 11:00:00,27.8,21.8,29.86,NNW,329,0.0,0.0,78,0.00,,,0.03,Wunderground v.1.15,2013-02-23 17:00:00,
2013-02-23 11:30:00,29.5,22.2,29.86,NNW,329,0.0,0.0,74,0.00,,,0.03,Wunderground v.1.15,2013-02-23 17:30:00,
2013-02-23 12:00:00,30.4,23.1,29.86,NNW,329,1.0,1.0,74,0.00,,,0.03,Wunderground v.1.15,2013-02-23 18:00:00,
2013-02-23 12:30:00,30.8,23.2,29.86,NNW,329,0.0,0.0,73,0.00,,,0.03,Wunderground v.1.15,2013-02-23 18:30:00,
2013-02-23 13:00:00,31.7,23.7,29.85,NNW,329,1.0,1.0,72,0.00,,,0.03,Wunderground v.1.15,2013-02-23 19:00:00,
2013-02-23 13:30:00,31.9,23.6,29.84,NNW,330,0.0,1.0,71,0.00,,,0.03,Wunderground v.1.15,2013-02-23 19:30:00,
2013-02-23 14:00:00,31.9,23.2,29.85,NNW,330,0.0,1.0,70,0.00,,,0.03,Wunderground v.1.15,2013-02-23 20:00:00,
2013-02-23 14:30:00,31.5,22.8,29.84,NNW,330,0.0,0.0,70,0.00,,,0.03,Wunderground v.1.15,2013-02-23 20:30:00,
2013-02-23 15:00:00,31.7,23.0,29.84,NNE,15,0.0,0.0,70,0.00,,,0.03,Wunderground v.1.15,2013-02-23 21:00:00,
2013-02-23 15:30:00,31.5,22.8,29.84,NNE,17,0.0,0.0,70,0.00,,,0.03,Wunderground v.1.15,2013-02-23 21:30:00,
2013-02-23 16:00:00,30.8,22.2,29.84,NNE,17,0.0,0.0,70,0.00,,,0.03,Wunderground v.1.15,2013-02-23 22:00:00,
2013-02-23 16:30:00,30.2,21.6,29.84,ESE,113,0.0,0.0,70,0.00,,,0.03,Wunderground v.1.15,2013-02-23 22:30:00,
2013-02-23 17:00:00,29.4,21.5,29.85,ESE,113,0.0,0.0,72,0.00,,,0.03,Wunderground v.1.15,2013-02-23 23:00:00,
2013-02-23 17:30:00,28.4,21.2,29.85,ESE,113,0.0,0.0,74,0.00,,,0.03,Wunderground v.1.15,2013-02-23 23:30:00,
2013-02-23 18:00:00,27.8,20.9,29.86,ESE,113,0.0,0.0,75,0.00,,,0.03,Wunderground v.1.15,2013-02-24 00:00:00,
2013-02-23 18:30:00,26.7,20.8,29.87,ESE,113,0.0,0.0,78,0.00,,,0.03,Wunderground v.1.15,2013-02-24 00:30:00,
2013-02-23 19:00:00,25.3,19.4,29.88,ESE,113,0.0,0.0,78,0.00,,,0.03,Wunderground v.1.15,2013-02-24 01:00:00,
2013-02-23 19:30:00,23.0,17.5,29.88,ESE,113,0.0,0.0,79,0.00,,,0.03,Wunderground v.1.15,2013-02-24 01:30:00,
2013-02-23 20:00:00,21.2,16.3,29.89,ESE,113,0.0,0.0,81,0.00,,,0.03,Wunderground v.1.15,2013-02-24 02:00:00,
2013-02-23 20:30:00,19.7,15.4,29.90,ESE,113,0.0,0.0,83,0.00,,,0.03,Wunderground v.1.15,2013-02-24 02:30:00,
2013-02-23 21:00:00,18.1,14.1,29.91,ESE,113,0.0,0.0,84,0.00,,,0.03,Wunderground v.1.15,2013-02-24 03:00:00,
2013-02-23 21:30:00,16.7,13.0,29.92,ESE,113,0.0,0.0,85,0.00,,,0.03,Wunderground v.1.15,2013-02-24 03:30:00,
2013-02-23 22:00:00,15.3,11.9,29.92,ESE,113,0.0,0.0,86,0.00,,,0.03,Wunderground v.1.15,2013-02-24 04:00:00,
2013-02-23 22:30:00,14.7,11.5,29.92,ESE,113,0.0,0.0,87,0.00,,,0.03,Wunderground v.1.15,2013-02-24 04:30:00,
2013-02-23 23:00:00,13.5,10.4,29.93,ESE,113,0.0,0.0,87,0.00,,,0.03,Wunderground v.1.15,2013-02-24 05:00:00,
2013-02-23 23:30:00,12.6,9.5,29.94,ESE,113,0.0,0.0,87,0.00,,,0.03,Wunderground v.1.15,2013-02-24 05:30:00,